Time;durP1;ratioP1;P1;durP2;ratioP2;P2;SDS_P1;SDS_P2;PMS_P1;PMS_P2;Temp;Humidity;BMP_temperature;BMP_pressure;BME280_temperature;BME280_humidity;BME280_pressure;Samples;Min_cycle;Max_cycle;Signal;HPM_P1;HPM_P2
2023/10/06 00:01:42;;;;;;;0.60;0.60;;;3.40;99.90;;;;;;5132761;27;20190;-72
2023/10/06 00:04:15;;;;;;;0.60;0.60;;;3.40;99.90;;;;;;5133288;27;20203;-77
2023/10/06 00:06:42;;;;;;;0.70;0.70;;;3.40;99.90;;;;;;5132432;27;20314;-76
2023/10/06 00:09:30;;;;;;;0.70;0.70;;;3.40;99.90;;;;;;5134042;27;20280;-76
2023/10/06 00:11:56;;;;;;;0.60;0.60;;;3.40;99.90;;;;;;5133368;27;20701;-77
2023/10/06 00:14:40;;;;;;;0.50;0.50;;;3.40;99.90;;;;;;5133273;27;20201;-76
2023/10/06 00:17:17;;;;;;;0.70;0.70;;;3.40;99.90;;;;;;5133490;27;20226;-76
2023/10/06 00:19:59;;;;;;;0.70;0.70;;;3.50;99.90;;;;;;5133029;27;20239;-75
2023/10/06 00:22:26;;;;;;;0.60;0.60;;;3.40;99.90;;;;;;5114137;27;20198;-77
2023/10/06 00:24:55;;;;;;;0.60;0.60;;;3.50;99.90;;;;;;5115216;27;20357;-76
2023/10/06 00:27:29;;;;;;;0.70;0.70;;;3.50;99.90;;;;;;5132646;27;20191;-75
2023/10/06 00:29:55;;;;;;;0.60;0.60;;;3.50;99.90;;;;;;5132967;27;20645;-77
2023/10/06 00:32:28;;;;;;;0.50;0.50;;;3.50;99.90;;;;;;5133547;27;20339;-76
2023/10/06 00:35:07;;;;;;;0.70;0.70;;;3.50;99.90;;;;;;5132761;27;20190;-76
2023/10/06 00:37:35;;;;;;;0.70;0.70;;;3.50;99.90;;;;;;5113433;27;20206;-77
2023/10/06 00:40:01;;;;;;;0.80;0.80;;;3.50;99.90;;;;;;5133322;27;20239;-76
2023/10/06 00:42:27;;;;;;;0.60;0.60;;;3.50;99.90;;;;;;5133348;27;20277;-77
2023/10/06 00:44:53;;;;;;;0.60;0.60;;;3.50;99.90;;;;;;5134130;27;20202;-76
2023/10/06 00:47:21;;;;;;;0.70;0.70;;;3.50;99.90;;;;;;5133955;27;20294;-77
2023/10/06 00:49:47;;;;;;;0.60;0.60;;;3.50;99.90;;;;;;5134283;27;20633;-76
2023/10/06 00:52:15;;;;;;;0.50;0.50;;;3.40;99.90;;;;;;5133652;27;20701;-77
2023/10/06 00:54:44;;;;;;;0.70;0.70;;;3.40;99.90;;;;;;5132843;27;20198;-76
2023/10/06 00:57:17;;;;;;;0.70;0.70;;;3.50;99.90;;;;;;5134097;27;20191;-76
2023/10/06 00:59:43;;;;;;;0.60;0.60;;;3.50;99.90;;;;;;5134230;27;20832;-76
2023/10/06 01:02:11;;;;;;;0.70;0.70;;;3.50;99.90;;;;;;5134025;27;20270;-75
2023/10/06 01:04:43;;;;;;;0.80;0.80;;;3.50;99.90;;;;;;5131520;27;20198;-74
2023/10/06 01:07:12;;;;;;;1.00;0.90;;;3.50;99.90;;;;;;5131667;27;20210;-74
2023/10/06 01:09:55;;;;;;;0.70;0.70;;;3.60;99.90;;;;;;5131037;27;20666;-74
2023/10/06 01:12:21;;;;;;;0.70;0.70;;;3.60;99.90;;;;;;5131210;27;20205;-75
2023/10/06 01:14:51;;;;;;;0.70;0.70;;;3.60;99.90;;;;;;5132480;27;20712;-75
2023/10/06 01:17:18;;;;;;;0.60;0.60;;;3.60;99.90;;;;;;5132245;27;20195;-76
2023/10/06 01:19:53;;;;;;;0.52;0.52;;;3.70;99.90;;;;;;5113769;27;20222;-77
2023/10/06 01:22:27;;;;;;;0.70;0.70;;;3.70;99.90;;;;;;5113625;27;20198;-77
2023/10/06 01:24:54;;;;;;;1.00;1.00;;;3.70;99.90;;;;;;5132740;27;20713;-76
2023/10/06 01:27:25;;;;;;;0.68;0.68;;;3.80;99.90;;;;;;5133273;27;20197;-77
2023/10/06 01:32:41;;;;;;;0.60;0.60;;;3.90;99.90;;;;;;5133094;27;20225;-76
2023/10/06 01:35:12;;;;;;;0.60;0.60;;;3.90;99.90;;;;;;5133187;27;20183;-76
2023/10/06 01:37:42;;;;;;;0.60;0.60;;;3.90;99.90;;;;;;5133112;27;20205;-76
2023/10/06 01:40:18;;;;;;;0.77;0.77;;;3.90;99.90;;;;;;5114129;27;20205;-76
2023/10/06 01:42:45;;;;;;;0.60;0.60;;;3.90;99.90;;;;;;5132429;27;20190;-76
2023/10/06 01:45:14;;;;;;;0.70;0.70;;;4.00;99.90;;;;;;5133029;27;20183;-76
2023/10/06 01:47:41;;;;;;;0.80;0.80;;;4.00;99.90;;;;;;5132749;27;20738;-76
2023/10/06 01:50:08;;;;;;;0.60;0.60;;;3.90;99.90;;;;;;5132536;27;20203;-77
2023/10/06 01:52:34;;;;;;;0.60;0.60;;;4.00;99.90;;;;;;5132821;27;20712;-76
2023/10/06 01:55:03;;;;;;;0.52;0.52;;;3.90;99.90;;;;;;5133302;27;20220;-76
2023/10/06 01:57:28;;;;;;;0.70;0.70;;;3.90;99.90;;;;;;5131066;27;20218;-77
2023/10/06 01:59:54;;;;;;;0.70;0.70;;;3.90;99.90;;;;;;5132949;27;20229;-76
2023/10/06 02:02:24;;;;;;;0.70;0.70;;;3.90;99.90;;;;;;5116847;27;20563;-77
2023/10/06 02:04:52;;;;;;;0.70;0.70;;;3.90;99.90;;;;;;5112010;28;20221;-76
2023/10/06 02:07:18;;;;;;;0.63;0.63;;;3.90;99.90;;;;;;5112077;28;20662;-76
2023/10/06 02:09:44;;;;;;;0.70;0.70;;;4.00;99.90;;;;;;5092831;28;20234;-76
2023/10/06 02:12:10;;;;;;;0.60;0.60;;;3.90;99.90;;;;;;5111606;28;20305;-73
2023/10/06 02:14:35;;;;;;;0.60;0.60;;;4.00;99.90;;;;;;5126378;27;20264;-72
2023/10/06 02:17:05;;;;;;;0.70;0.70;;;4.00;99.90;;;;;;5130177;27;20223;-72
2023/10/06 02:19:32;;;;;;;0.70;0.70;;;4.00;99.90;;;;;;5111640;27;20274;-72
2023/10/06 02:21:58;;;;;;;0.60;0.60;;;4.00;99.90;;;;;;5130318;27;20191;-74
2023/10/06 02:24:23;;;;;;;0.63;0.63;;;4.00;99.90;;;;;;5130194;27;20281;-75
2023/10/06 02:27:00;;;;;;;0.50;0.50;;;4.00;99.90;;;;;;5130074;27;20267;-74
2023/10/06 02:29:26;;;;;;;0.60;0.60;;;4.00;99.90;;;;;;5111398;27;20559;-75
2023/10/06 02:32:05;;;;;;;0.70;0.70;;;4.00;99.90;;;;;;5129673;27;20202;-74
2023/10/06 02:34:35;;;;;;;0.73;0.73;;;4.00;99.90;;;;;;5129616;27;20189;-74
2023/10/06 02:37:02;;;;;;;0.63;0.63;;;4.10;99.90;;;;;;5130082;27;20194;-74
2023/10/06 02:39:28;;;;;;;0.60;0.60;;;4.10;99.90;;;;;;5129881;27;20199;-74
2023/10/06 02:41:57;;;;;;;0.73;0.73;;;4.20;99.90;;;;;;5111678;27;20239;-74
2023/10/06 02:44:24;;;;;;;15.85;4.40;;;4.20;99.90;;;;;;5129531;27;20259;-74
2023/10/06 02:46:53;;;;;;;0.70;0.70;;;4.20;99.90;;;;;;5129419;27;20199;-74
2023/10/06 02:49:40;;;;;;;0.60;0.60;;;4.20;99.90;;;;;;5129832;27;20210;-75
2023/10/06 02:52:22;;;;;;;0.60;0.60;;;4.30;99.90;;;;;;5111213;28;20318;-74
2023/10/06 02:57:34;;;;;;;0.60;0.60;;;4.30;99.90;;;;;;5124097;27;20608;-74
2023/10/06 03:00:28;;;;;;;0.70;0.70;;;4.40;99.90;;;;;;5109302;28;20194;-74
2023/10/06 03:02:47;;;;;;;0.65;0.65;;;4.40;99.90;;;;;;5121852;28;20560;-74
2023/10/06 03:05:14;;;;;;;0.65;0.65;;;4.50;99.90;;;;;;5129695;28;20555;-74
2023/10/06 03:07:39;;;;;;;0.68;0.68;;;4.50;99.90;;;;;;5129487;28;20191;-73
2023/10/06 03:10:08;;;;;;;0.60;0.60;;;4.50;99.90;;;;;;5119029;28;20654;-73
2023/10/06 03:12:39;;;;;;;0.60;0.60;;;4.50;99.90;;;;;;5108713;28;20285;-72
2023/10/06 03:15:26;;;;;;;0.60;0.60;;;4.50;99.90;;;;;;5090635;28;20211;-72
2023/10/06 03:17:51;;;;;;;0.60;0.60;;;4.60;99.90;;;;;;5108879;28;20204;-73
2023/10/06 03:20:22;;;;;;;0.50;0.50;;;4.60;99.90;;;;;;5109380;28;20229;-72
2023/10/06 03:22:51;;;;;;;0.70;0.70;;;4.60;99.90;;;;;;5109200;28;20219;-71
2023/10/06 03:25:18;;;;;;;0.82;0.82;;;4.50;99.90;;;;;;5109285;28;20214;-72
2023/10/06 03:27:52;;;;;;;0.80;0.80;;;4.60;99.90;;;;;;5109350;28;20545;-72
2023/10/06 03:30:26;;;;;;;0.60;0.60;;;4.50;99.90;;;;;;5091016;28;20693;-71
2023/10/06 03:32:53;;;;;;;0.50;0.50;;;4.60;99.90;;;;;;5090838;28;20198;-73
2023/10/06 03:35:23;;;;;;;1.83;1.67;;;4.70;99.90;;;;;;5117948;28;20627;-72
2023/10/06 03:37:52;;;;;;;0.70;0.70;;;4.70;99.90;;;;;;5129502;28;20531;-71
2023/10/06 03:40:24;;;;;;;0.60;0.60;;;4.80;99.90;;;;;;5129077;28;20187;-72
2023/10/06 03:42:52;;;;;;;0.57;0.57;;;4.80;99.90;;;;;;5131391;27;20194;-72
2023/10/06 03:45:26;;;;;;;0.60;0.60;;;4.90;99.90;;;;;;5133329;27;20210;-71
2023/10/06 03:48:13;;;;;;;0.55;0.55;;;5.00;99.90;;;;;;5133327;27;20553;-71
2023/10/06 03:50:40;;;;;;;0.43;0.43;;;5.00;99.90;;;;;;5133072;27;20211;-72
2023/10/06 03:53:10;;;;;;;0.70;0.70;;;5.00;99.90;;;;;;5132457;27;20642;-72
2023/10/06 03:55:46;;;;;;;0.50;0.50;;;5.10;99.90;;;;;;5112359;28;20222;-72
2023/10/06 03:58:14;;;;;;;0.60;0.60;;;5.20;99.90;;;;;;5112636;28;20191;-71
2023/10/06 04:00:41;;;;;;;0.60;0.60;;;5.30;99.90;;;;;;5093781;28;20199;-72
2023/10/06 04:03:13;;;;;;;0.50;0.50;;;5.40;99.90;;;;;;5112359;28;20520;-72
2023/10/06 04:05:41;;;;;;;0.70;0.70;;;5.40;99.90;;;;;;5116630;27;20229;-71
2023/10/06 04:08:14;;;;;;;0.60;0.60;;;5.50;99.90;;;;;;5132773;27;20201;-72
2023/10/06 04:10:40;;;;;;;0.60;0.60;;;5.60;99.90;;;;;;5132454;27;20673;-71
2023/10/06 04:13:10;;;;;;;0.50;0.50;;;5.60;99.90;;;;;;5132568;27;20187;-72
2023/10/06 04:15:43;;;;;;;0.60;0.60;;;5.70;99.90;;;;;;5113949;27;20230;-73
2023/10/06 04:18:11;;;;;;;0.60;0.60;;;5.70;99.90;;;;;;5132671;27;20671;-72
2023/10/06 04:20:43;;;;;;;0.70;0.70;;;5.80;99.90;;;;;;5132634;27;20189;-73
2023/10/06 04:23:11;;;;;;;0.70;0.70;;;5.80;99.90;;;;;;5132378;27;20219;-72
2023/10/06 04:25:40;;;;;;;0.70;0.70;;;5.90;99.90;;;;;;5132427;27;20179;-72
2023/10/06 04:28:11;;;;;;;0.70;0.70;;;6.00;99.90;;;;;;5132408;27;20264;-73
2023/10/06 04:30:37;;;;;;;0.70;0.70;;;6.10;99.90;;;;;;5131917;27;20614;-73
2023/10/06 04:33:04;;;;;;;0.70;0.70;;;6.10;99.90;;;;;;5132494;27;20274;-72
2023/10/06 04:35:33;;;;;;;0.60;0.60;;;6.30;99.90;;;;;;5131934;27;20679;-73
2023/10/06 04:38:03;;;;;;;0.68;0.68;;;6.30;99.90;;;;;;5113730;27;20226;-72
2023/10/06 04:40:29;;;;;;;0.70;0.70;;;6.50;99.90;;;;;;5111502;28;20194;-72
2023/10/06 04:42:56;;;;;;;0.77;0.77;;;6.50;99.90;;;;;;5093136;28;20670;-76
2023/10/06 04:45:23;;;;;;;0.70;0.70;;;6.60;99.90;;;;;;5111365;28;20196;-75
2023/10/06 04:47:48;;;;;;;0.70;0.70;;;6.60;99.90;;;;;;5111424;28;20187;-77
2023/10/06 04:50:16;;;;;;;0.60;0.60;;;6.70;99.90;;;;;;5119194;27;20560;-76
2023/10/06 04:52:46;;;;;;;0.70;0.70;;;6.80;99.90;;;;;;5131259;27;20234;-76
2023/10/06 04:55:13;;;;;;;0.60;0.60;;;6.80;99.90;;;;;;5128709;27;20279;-76
2023/10/06 04:57:43;;;;;;;0.60;0.60;;;6.90;99.90;;;;;;5131620;27;20183;-76
2023/10/06 05:00:14;;;;;;;0.60;0.60;;;6.90;99.90;;;;;;5130574;27;20198;-75
2023/10/06 05:02:44;;;;;;;0.70;0.70;;;7.00;99.90;;;;;;5111378;27;20252;-76
2023/10/06 05:05:11;;;;;;;0.70;0.70;;;7.00;99.90;;;;;;5111242;28;20203;-76
2023/10/06 05:07:37;;;;;;;0.60;0.60;;;7.10;99.90;;;;;;5110995;28;20203;-75
2023/10/06 05:10:08;;;;;;;0.60;0.60;;;7.20;99.90;;;;;;5111169;28;20321;-76
2023/10/06 05:12:37;;;;;;;0.57;0.57;;;7.30;99.90;;;;;;5110688;28;20207;-75
2023/10/06 05:15:14;;;;;;;0.68;0.68;;;7.30;99.90;;;;;;5110944;28;20268;-75
2023/10/06 05:17:40;;;;;;;0.70;0.70;;;7.30;99.90;;;;;;5092291;28;20199;-75
2023/10/06 05:20:19;;;;;;;0.70;0.70;;;7.30;99.90;;;;;;5110673;28;20232;-75
2023/10/06 05:22:47;;;;;;;0.68;0.68;;;7.40;99.90;;;;;;5110693;28;20615;-74
2023/10/06 05:25:13;;;;;;;0.70;0.70;;;7.40;99.90;;;;;;5110755;28;20195;-74
2023/10/06 05:27:39;;;;;;;0.63;0.63;;;7.50;99.90;;;;;;5099730;27;20202;-75
2023/10/06 05:30:06;;;;;;;0.70;0.70;;;7.50;99.90;;;;;;5130982;27;20191;-74
2023/10/06 05:32:32;;;;;;;0.60;0.60;;;7.60;99.90;;;;;;5130773;27;20575;-74
2023/10/06 05:34:58;;;;;;;0.68;0.68;;;7.60;99.90;;;;;;5124323;27;20689;-76
2023/10/06 05:37:24;;;;;;;1.88;1.50;;;7.70;99.90;;;;;;5110236;28;20219;-75
2023/10/06 05:39:49;;;;;;;0.50;0.50;;;7.70;99.90;;;;;;5110431;28;20284;-74
2023/10/06 05:42:15;;;;;;;0.70;0.70;;;7.80;99.90;;;;;;5110335;28;20256;-74
2023/10/06 05:44:41;;;;;;;0.50;0.50;;;7.90;99.90;;;;;;5092076;28;20663;-73
2023/10/06 05:47:10;;;;;;;0.90;0.90;;;8.00;99.90;;;;;;5123156;27;20208;-74
2023/10/06 05:49:38;;;;;;;0.68;0.68;;;8.00;99.90;;;;;;5130871;27;20195;-74
2023/10/06 05:52:10;;;;;;;0.70;0.70;;;8.10;99.90;;;;;;5130554;27;20207;-73
2023/10/06 05:54:37;;;;;;;0.70;0.70;;;8.10;99.90;;;;;;5123571;27;20263;-74
2023/10/06 05:57:04;;;;;;;0.60;0.60;;;8.20;99.90;;;;;;5130478;27;20692;-75
2023/10/06 05:59:32;;;;;;;0.68;0.68;;;8.20;99.90;;;;;;5095557;28;20234;-75
2023/10/06 06:02:00;;;;;;;0.60;0.60;;;8.30;99.90;;;;;;5109830;28;20184;-76
2023/10/06 06:04:30;;;;;;;0.82;0.82;;;8.30;99.90;;;;;;5108832;28;20689;-75
2023/10/06 06:06:57;;;;;;;0.70;0.70;;;8.30;99.90;;;;;;5109736;28;20195;-74
2023/10/06 06:09:27;;;;;;;0.70;0.70;;;8.40;99.90;;;;;;5109638;28;20199;-75
2023/10/06 06:11:53;;;;;;;0.93;0.88;;;8.40;99.90;;;;;;5091129;28;20215;-74
2023/10/06 06:14:21;;;;;;;0.55;0.55;;;8.40;99.90;;;;;;5109390;28;20248;-74
2023/10/06 06:16:48;;;;;;;0.50;0.50;;;8.50;99.90;;;;;;5091327;28;20662;-74
2023/10/06 06:19:14;;;;;;;0.60;0.60;;;8.50;99.90;;;;;;5109629;28;20283;-74
2023/10/06 06:21:40;;;;;;;0.60;0.60;;;8.50;99.90;;;;;;5109316;28;20199;-74
2023/10/06 06:24:06;;;;;;;0.60;0.60;;;8.50;99.90;;;;;;5109568;28;20310;-74
2023/10/06 06:26:38;;;;;;;0.60;0.60;;;8.60;99.90;;;;;;5091046;28;20195;-73
2023/10/06 06:29:05;;;;;;;0.60;0.60;;;8.60;99.90;;;;;;5109578;28;20203;-74
2023/10/06 06:31:34;;;;;;;0.73;0.73;;;8.70;99.90;;;;;;5100155;28;20239;-74
2023/10/06 06:34:06;;;;;;;0.63;0.63;;;8.70;99.90;;;;;;5089291;28;20540;-74
2023/10/06 06:36:32;;;;;;;0.70;0.70;;;8.70;99.90;;;;;;5088881;28;20193;-74
2023/10/06 06:38:59;;;;;;;0.60;0.60;;;8.80;99.90;;;;;;5070547;28;20206;-75
2023/10/06 06:41:25;;;;;;;0.60;0.60;;;8.80;99.90;;;;;;5088776;28;20693;-74
2023/10/06 06:43:58;;;;;;;0.63;0.63;;;8.90;99.90;;;;;;5105895;28;20199;-74
2023/10/06 06:46:26;;;;;;;0.70;0.70;;;8.90;99.90;;;;;;5109094;28;20256;-74
2023/10/06 06:48:52;;;;;;;0.70;0.70;;;9.00;99.90;;;;;;5109454;28;20191;-74
2023/10/06 06:51:18;;;;;;;0.70;0.70;;;9.00;99.90;;;;;;5108918;28;20215;-75
2023/10/06 06:53:45;;;;;;;0.60;0.60;;;9.00;99.90;;;;;;5123327;27;20678;-74
2023/10/06 06:56:11;;;;;;;0.70;0.70;;;9.10;99.90;;;;;;5129713;27;20198;-75
2023/10/06 06:58:37;;;;;;;0.70;0.70;;;9.10;99.90;;;;;;5129489;28;20190;-75
2023/10/06 07:01:06;;;;;;;0.70;0.70;;;9.20;99.90;;;;;;5129803;28;20203;-76
2023/10/06 07:03:32;;;;;;;0.68;0.68;;;9.40;99.90;;;;;;5129401;28;20191;-73
2023/10/06 07:05:57;;;;;;;0.50;0.50;;;9.50;99.90;;;;;;5129534;28;20709;-73
2023/10/06 07:08:24;;;;;;;0.70;0.70;;;9.60;99.90;;;;;;5110910;28;20290;-73
2023/10/06 07:10:53;;;;;;;0.57;0.57;;;9.60;99.90;;;;;;5111204;28;20678;-73
2023/10/06 07:13:24;;;;;;;0.70;0.70;;;9.60;99.90;;;;;;5129340;28;20209;-73
2023/10/06 07:15:50;;;;;;;0.70;0.70;;;9.60;99.90;;;;;;5111238;27;20203;-72
2023/10/06 07:18:16;;;;;;;0.68;0.68;;;9.70;99.90;;;;;;5114982;27;20195;-73
2023/10/06 07:20:44;;;;;;;0.98;0.95;;;9.70;99.90;;;;;;5114953;27;20251;-73
2023/10/06 07:23:10;;;;;;;0.50;0.50;;;9.70;99.90;;;;;;5133338;27;20179;-72
2023/10/06 07:25:37;;;;;;;0.60;0.60;;;9.80;99.90;;;;;;5133224;27;20220;-73
2023/10/06 07:28:05;;;;;;;0.85;0.85;;;9.80;99.90;;;;;;5133170;27;20190;-73
2023/10/06 07:30:40;;;;;;;0.68;0.68;;;9.90;99.90;;;;;;5133163;27;20554;-73
2023/10/06 07:33:05;;;;;;;0.60;0.60;;;10.00;99.90;;;;;;5133399;27;20197;-72
2023/10/06 07:35:41;;;;;;;0.52;0.52;;;10.10;99.90;;;;;;5115129;27;20191;-72
2023/10/06 07:38:10;;;;;;;0.63;0.63;;;10.20;99.90;;;;;;5133612;27;20833;-72
2023/10/06 07:40:38;;;;;;;0.90;0.90;;;10.30;99.90;;;;;;5133364;27;20202;-72
2023/10/06 07:43:05;;;;;;;0.60;0.60;;;10.40;99.90;;;;;;5133199;27;20688;-72
2023/10/06 07:45:32;;;;;;;1.23;1.10;;;10.50;99.90;;;;;;5133137;27;20279;-71
2023/10/06 07:47:58;;;;;;;0.70;0.70;;;10.50;99.90;;;;;;5114524;27;20203;-72
2023/10/06 07:50:28;;;;;;;0.93;0.93;;;10.60;99.90;;;;;;5132712;27;20278;-72
2023/10/06 07:52:54;;;;;;;0.60;0.60;;;10.60;99.90;;;;;;5114264;27;20270;-72
2023/10/06 07:55:23;;;;;;;0.60;0.60;;;10.60;99.90;;;;;;5132741;27;20256;-72
2023/10/06 07:57:50;;;;;;;0.63;0.63;;;10.70;99.90;;;;;;5133127;27;20197;-72
2023/10/06 08:00:29;;;;;;;0.60;0.60;;;10.70;99.90;;;;;;5131916;27;20214;-72
2023/10/06 08:02:59;;;;;;;0.60;0.60;;;10.70;99.90;;;;;;5132876;27;20186;-75
2023/10/06 08:05:25;;;;;;;0.60;0.60;;;10.70;99.90;;;;;;5132872;27;20198;-74
2023/10/06 08:07:52;;;;;;;0.60;0.60;;;10.70;99.90;;;;;;5132873;27;20264;-74
2023/10/06 08:10:18;;;;;;;0.70;0.70;;;10.70;99.90;;;;;;5132676;27;20187;-74
2023/10/06 08:12:45;;;;;;;0.68;0.68;;;10.70;99.90;;;;;;5132669;27;20217;-73
2023/10/06 08:15:16;;;;;;;0.50;0.50;;;10.60;99.90;;;;;;5133116;27;20266;-74
2023/10/06 08:17:46;;;;;;;0.60;0.60;;;10.60;99.90;;;;;;5132343;27;20568;-74
2023/10/06 08:20:12;;;;;;;0.70;0.70;;;10.60;99.90;;;;;;5132438;27;20193;-73
2023/10/06 08:22:39;;;;;;;0.60;0.60;;;10.60;99.90;;;;;;5113680;27;20289;-74
2023/10/06 08:25:05;;;;;;;0.63;0.63;;;10.50;99.90;;;;;;5114440;27;20206;-74
2023/10/06 08:27:39;;;;;;;0.60;0.60;;;10.50;99.90;;;;;;5110743;28;20306;-74
2023/10/06 08:30:09;;;;;;;0.60;0.60;;;10.60;99.90;;;;;;5111950;28;20184;-74
2023/10/06 08:32:35;;;;;;;1.33;1.23;;;10.60;99.90;;;;;;5111280;28;20568;-74
2023/10/06 08:35:02;;;;;;;0.60;0.60;;;10.60;99.90;;;;;;5117349;27;20214;-74
2023/10/06 08:37:30;;;;;;;0.70;0.70;;;10.50;99.90;;;;;;5113243;27;20190;-75
2023/10/06 08:39:55;;;;;;;0.60;0.60;;;10.50;99.90;;;;;;5131861;27;20239;-74
2023/10/06 08:42:22;;;;;;;0.50;0.50;;;10.50;99.90;;;;;;5131915;27;20604;-74
2023/10/06 08:44:47;;;;;;;0.60;0.60;;;10.50;99.90;;;;;;5131815;27;20203;-73
2023/10/06 08:47:14;;;;;;;0.60;0.60;;;10.50;99.90;;;;;;5124409;27;20566;-74
2023/10/06 08:49:41;;;;;;;0.60;0.60;;;10.50;99.90;;;;;;5092967;28;20678;-74
2023/10/06 08:52:12;;;;;;;0.70;0.70;;;10.40;99.90;;;;;;5092784;28;20282;-74
2023/10/06 08:54:38;;;;;;;0.60;0.60;;;10.50;99.90;;;;;;5139050;27;20225;-74
2023/10/06 08:57:03;;;;;;;0.68;0.68;;;10.50;99.90;;;;;;5152565;27;20232;-73
2023/10/06 08:59:32;;;;;;;2.05;1.83;;;10.50;99.90;;;;;;5152726;27;20225;-74
2023/10/06 09:02:00;;;;;;;0.70;0.70;;;10.50;99.90;;;;;;5133866;27;20213;-73
2023/10/06 09:04:34;;;;;;;0.60;0.60;;;10.50;99.90;;;;;;5151974;27;20190;-74
2023/10/06 09:07:07;;;;;;;0.60;0.60;;;10.60;99.90;;;;;;5152466;27;20201;-73
2023/10/06 09:09:33;;;;;;;0.60;0.60;;;10.60;99.90;;;;;;5151946;27;20194;-74
2023/10/06 09:11:59;;;;;;;0.60;0.60;;;10.60;99.90;;;;;;5149633;27;20616;-74
2023/10/06 09:14:25;;;;;;;0.60;0.60;;;10.60;99.90;;;;;;5112934;27;20210;-74
2023/10/06 09:16:51;;;;;;;0.60;0.60;;;10.70;99.90;;;;;;5113013;27;20199;-75
2023/10/06 09:19:18;;;;;;;0.63;0.63;;;10.70;99.90;;;;;;5130926;27;20661;-73
2023/10/06 09:22:04;;;;;;;0.60;0.60;;;10.80;99.90;;;;;;5131224;27;20718;-74
2023/10/06 09:24:30;;;;;;;0.60;0.60;;;10.80;99.90;;;;;;5112467;27;20278;-76
2023/10/06 09:30:21;;;;;;;0.60;0.60;;;10.80;99.90;;;;;;5106782;27;20222;-75
2023/10/06 09:32:49;;;;;;;0.63;0.63;;;10.80;99.90;;;;;;5131125;27;20713;-75
2023/10/06 09:35:22;;;;;;;0.70;0.70;;;10.80;99.90;;;;;;5131123;27;20558;-75
2023/10/06 09:37:51;;;;;;;0.60;0.60;;;10.80;99.90;;;;;;5131022;27;20193;-75
2023/10/06 09:40:20;;;;;;;0.60;0.60;;;10.80;99.90;;;;;;5129800;27;20248;-75
2023/10/06 09:42:53;;;;;;;0.60;0.60;;;10.80;99.90;;;;;;5110804;27;20202;-73
2023/10/06 09:45:24;;;;;;;0.60;0.60;;;10.90;99.90;;;;;;5110228;28;20783;-75
2023/10/06 09:48:05;;;;;;;0.60;0.60;;;10.90;99.90;;;;;;5110645;28;20211;-75
2023/10/06 09:50:32;;;;;;;0.65;0.65;;;10.90;99.90;;;;;;5110258;28;20191;-74
2023/10/06 09:53:03;;;;;;;0.57;0.57;;;10.90;99.90;;;;;;5109632;27;20268;-74
2023/10/06 09:55:32;;;;;;;0.60;0.60;;;10.90;99.90;;;;;;5130745;27;20258;-75
2023/10/06 09:57:58;;;;;;;0.60;0.60;;;10.90;99.90;;;;;;5130636;27;20226;-76
2023/10/06 10:00:29;;;;;;;0.60;0.60;;;11.00;99.90;;;;;;5127755;27;20666;-75
2023/10/06 10:02:57;;;;;;;0.60;0.60;;;11.00;99.90;;;;;;5129050;27;20236;-76
2023/10/06 10:05:24;;;;;;;0.60;0.60;;;11.00;99.90;;;;;;5130234;27;20742;-75
2023/10/06 10:07:50;;;;;;;0.50;0.50;;;11.00;99.90;;;;;;5130340;27;20584;-75
2023/10/06 10:10:22;;;;;;;0.60;0.60;;;11.10;99.90;;;;;;5130352;27;20203;-76
2023/10/06 10:13:13;;;;;;;0.63;0.63;;;11.00;99.90;;;;;;5130150;27;20207;-75
2023/10/06 10:15:53;;;;;;;0.60;0.60;;;11.10;99.90;;;;;;5129803;27;20198;-75
2023/10/06 10:18:36;;;;;;;0.60;0.60;;;11.10;99.90;;;;;;5130090;27;20528;-75
2023/10/06 10:21:04;;;;;;;0.60;0.60;;;11.20;99.90;;;;;;5111885;27;20202;-75
2023/10/06 10:23:31;;;;;;;0.70;0.70;;;11.20;99.90;;;;;;5129993;27;20658;-72
2023/10/06 10:26:23;;;;;;;0.60;0.60;;;11.30;99.90;;;;;;5111420;27;20203;-70
2023/10/06 10:29:16;;;;;;;1.08;0.98;;;11.30;99.90;;;;;;5113045;27;20206;-71
2023/10/06 10:31:47;;;;;;;0.60;0.60;;;11.40;99.90;;;;;;5090693;28;20241;-70
2023/10/06 10:34:20;;;;;;;0.60;0.60;;;11.40;99.90;;;;;;5109419;28;20199;-74
2023/10/06 10:36:48;;;;;;;0.60;0.60;;;11.30;99.90;;;;;;5109267;28;20602;-74
2023/10/06 10:39:18;;;;;;;0.60;0.60;;;11.40;99.90;;;;;;5090836;28;20196;-73
2023/10/06 10:41:45;;;;;;;0.50;0.50;;;11.50;99.90;;;;;;5109290;28;20659;-73
2023/10/06 10:44:12;;;;;;;0.70;0.70;;;11.50;99.90;;;;;;5109622;28;20196;-75
2023/10/06 10:46:46;;;;;;;0.60;0.60;;;11.50;99.90;;;;;;5090744;28;20286;-74
2023/10/06 10:49:13;;;;;;;0.60;0.60;;;11.60;99.90;;;;;;5109437;28;20188;-74
2023/10/06 10:52:09;;;;;;;0.60;0.60;;;11.60;99.90;;;;;;5108668;28;20724;-75
2023/10/06 10:54:39;;;;;;;0.60;0.60;;;11.70;99.90;;;;;;5105784;27;20696;-74
2023/10/06 10:57:14;;;;;;;0.50;0.50;;;11.80;99.90;;;;;;5129478;27;20186;-74
2023/10/06 11:02:45;;;;;;;0.50;0.50;;;12.00;99.90;;;;;;5129547;28;20514;-75
2023/10/06 11:05:17;;;;;;;0.60;0.60;;;12.10;99.90;;;;;;5129430;28;20696;-75
2023/10/06 11:07:57;;;;;;;0.63;0.63;;;12.20;99.90;;;;;;5129060;28;20198;-76
2023/10/06 11:10:23;;;;;;;0.60;0.60;;;12.30;99.90;;;;;;5129284;28;20286;-75
2023/10/06 11:12:50;;;;;;;0.60;0.60;;;12.40;99.90;;;;;;5110449;28;20696;-74
2023/10/06 11:15:27;;;;;;;0.50;0.50;;;12.40;99.90;;;;;;5129326;28;20217;-75
2023/10/06 11:17:58;;;;;;;0.60;0.60;;;12.50;99.90;;;;;;5129505;28;20221;-75
2023/10/06 11:20:33;;;;;;;0.60;0.60;;;12.60;99.90;;;;;;5129232;28;20195;-75
2023/10/06 11:23:00;;;;;;;0.60;0.60;;;12.60;99.90;;;;;;5110750;28;20606;-77
2023/10/06 11:25:27;;;;;;;0.50;0.50;;;12.60;99.90;;;;;;5128984;28;20197;-74
2023/10/06 11:28:04;;;;;;;0.60;0.60;;;12.70;99.90;;;;;;5110705;28;20531;-75
2023/10/06 11:30:32;;;;;;;0.65;0.65;;;12.80;99.90;;;;;;5129025;28;20309;-74
2023/10/06 11:33:04;;;;;;;0.57;0.57;;;12.80;99.90;;;;;;5129310;28;20217;-77
2023/10/06 11:35:37;;;;;;;0.90;0.90;;;12.80;99.90;;;;;;5107067;28;20199;-75
2023/10/06 11:38:05;;;;;;;0.50;0.50;;;12.80;99.90;;;;;;5108646;28;20674;-75
2023/10/06 11:40:32;;;;;;;0.57;0.57;;;12.90;99.90;;;;;;5108447;28;20655;-74
2023/10/06 11:43:15;;;;;;;0.57;0.57;;;12.90;99.90;;;;;;5108776;28;20207;-73
2023/10/06 11:45:42;;;;;;;0.55;0.55;;;13.00;99.90;;;;;;5090133;28;20213;-74
2023/10/06 11:48:33;;;;;;;0.52;0.52;;;13.00;99.90;;;;;;5108833;28;20337;-74
2023/10/06 11:51:06;;;;;;;0.60;0.60;;;13.10;99.90;;;;;;5108793;28;20196;-75
2023/10/06 11:53:39;;;;;;;0.75;0.75;;;13.20;99.90;;;;;;5112975;28;20584;-75
2023/10/06 11:56:07;;;;;;;0.60;0.60;;;13.20;99.90;;;;;;5129143;27;20292;-76
2023/10/06 11:58:35;;;;;;;0.60;0.60;;;13.20;99.90;;;;;;5129001;27;20288;-76
2023/10/06 12:01:05;;;;;;;0.60;0.60;;;13.30;99.90;;;;;;5128934;27;20199;-76
2023/10/06 12:03:39;;;;;;;0.95;0.68;;;13.30;99.90;;;;;;5130722;27;20195;-75
2023/10/06 12:06:11;;;;;;;0.68;0.68;;;13.40;99.90;;;;;;5133046;27;20487;-76
2023/10/06 12:08:56;;;;;;;0.60;0.60;;;13.40;99.90;;;;;;5132150;27;20237;-76
2023/10/06 12:11:21;;;;;;;0.50;0.50;;;13.50;99.90;;;;;;5132329;27;20206;-75
2023/10/06 12:13:47;;;;;;;0.50;0.50;;;13.60;99.90;;;;;;5133143;27;20241;-75
2023/10/06 12:16:16;;;;;;;0.50;0.50;;;13.60;99.90;;;;;;5132576;27;20200;-75
2023/10/06 12:18:46;;;;;;;0.60;0.60;;;13.60;99.90;;;;;;5132293;27;20248;-75
2023/10/06 12:21:15;;;;;;;0.50;0.50;;;13.60;99.90;;;;;;5132426;27;20219;-75
2023/10/06 12:23:42;;;;;;;0.50;0.50;;;13.70;99.90;;;;;;5132199;27;20251;-74
2023/10/06 12:26:08;;;;;;;0.50;0.50;;;13.70;99.90;;;;;;5113869;27;20206;-74
2023/10/06 12:28:33;;;;;;;0.50;0.50;;;13.70;99.90;;;;;;5131904;27;20205;-75
2023/10/06 12:31:00;;;;;;;0.50;0.50;;;13.70;99.90;;;;;;5131917;27;20701;-77
2023/10/06 12:33:26;;;;;;;0.50;0.50;;;13.80;99.90;;;;;;5131953;27;20202;-76
2023/10/06 12:35:52;;;;;;;0.50;0.50;;;13.90;99.90;;;;;;5132085;27;20187;-76
2023/10/06 12:38:22;;;;;;;0.50;0.50;;;13.90;99.90;;;;;;5131871;27;20190;-76
2023/10/06 12:40:48;;;;;;;0.50;0.50;;;14.00;99.90;;;;;;5131914;27;20192;-76
2023/10/06 12:43:15;;;;;;;0.43;0.43;;;14.10;99.90;;;;;;5132071;27;20213;-76
2023/10/06 12:45:40;;;;;;;0.50;0.50;;;14.20;99.90;;;;;;5131665;27;20191;-76
2023/10/06 12:48:07;;;;;;;0.52;0.52;;;14.20;99.90;;;;;;5113276;27;20199;-76
2023/10/06 12:50:43;;;;;;;0.50;0.50;;;14.30;99.90;;;;;;5109794;28;20203;-76
2023/10/06 12:53:12;;;;;;;0.45;0.45;;;14.30;99.90;;;;;;5112802;27;20746;-72
2023/10/06 12:55:44;;;;;;;0.40;0.40;;;14.40;99.90;;;;;;5132348;27;20275;-74
2023/10/06 12:58:14;;;;;;;0.50;0.50;;;14.50;99.90;;;;;;5131819;27;20708;-74
2023/10/06 13:00:41;;;;;;;0.50;0.50;;;14.50;99.90;;;;;;5131755;27;20189;-74
2023/10/06 13:03:15;;;;;;;0.50;0.50;;;14.50;99.90;;;;;;5132109;27;20645;-74
2023/10/06 13:05:45;;;;;;;0.63;0.63;;;14.60;99.90;;;;;;5119080;27;20234;-74
2023/10/06 13:08:16;;;;;;;0.50;0.50;;;14.60;99.90;;;;;;5111400;28;20745;-74
2023/10/06 13:10:46;;;;;;;2.20;0.75;;;14.60;99.90;;;;;;5092521;28;20203;-75
2023/10/06 13:13:16;;;;;;;0.50;0.50;;;14.70;99.90;;;;;;5111363;28;20183;-75
2023/10/06 13:15:47;;;;;;;0.50;0.50;;;14.70;99.90;;;;;;5092893;27;20198;-74
2023/10/06 13:18:17;;;;;;;0.50;0.50;;;14.70;99.90;;;;;;5131388;27;20549;-75